Time;durP1;ratioP1;P1;durP2;ratioP2;P2;SDS_P1;SDS_P2;PMS_P1;PMS_P2;Temp;Humidity;BMP_temperature;BMP_pressure;BME280_temperature;BME280_humidity;BME280_pressure;Samples;Min_cycle;Max_cycle;Signal;HPM_P1;HPM_P2
2022/11/01 00:01:01;;;;;;;11.07;4.65;;;15.80;94.20;;;;;;4979840;28;20054;-81
2022/11/01 00:03:27;;;;;;;11.02;4.03;;;15.80;94.20;;;;;;4995647;28;20034;-80
2022/11/01 00:05:52;;;;;;;13.02;4.32;;;15.80;94.20;;;;;;4979287;28;20035;-81
2022/11/01 00:08:18;;;;;;;12.25;4.93;;;15.90;94.10;;;;;;4979335;28;20034;-80
2022/11/01 00:10:44;;;;;;;12.02;4.47;;;15.90;94.10;;;;;;4979401;28;20035;-82
2022/11/01 00:13:09;;;;;;;9.25;4.30;;;15.90;93.90;;;;;;4979612;28;20372;-80
2022/11/01 00:15:35;;;;;;;16.77;4.35;;;16.00;93.80;;;;;;4979123;28;20075;-80
2022/11/01 00:18:01;;;;;;;9.90;4.28;;;16.00;93.80;;;;;;4979147;28;20039;-80
2022/11/01 00:20:26;;;;;;;8.90;4.18;;;16.10;93.70;;;;;;4979938;28;20478;-80
2022/11/01 00:22:52;;;;;;;14.13;4.88;;;16.10;93.70;;;;;;4995484;28;20494;-80
2022/11/01 00:25:17;;;;;;;13.55;4.55;;;16.20;93.60;;;;;;4996987;28;20662;-81
2022/11/01 00:27:43;;;;;;;9.32;4.05;;;16.20;93.60;;;;;;5011446;28;20034;-81
2022/11/01 00:30:09;;;;;;;11.70;4.38;;;16.20;93.60;;;;;;4995185;28;20030;-80
2022/11/01 00:32:35;;;;;;;14.02;4.68;;;16.20;93.50;;;;;;5011403;28;20030;-80
2022/11/01 00:35:00;;;;;;;9.82;4.22;;;16.20;93.40;;;;;;4995081;28;20022;-80
2022/11/01 00:37:27;;;;;;;10.48;3.88;;;16.20;93.40;;;;;;4995033;28;20105;-81
2022/11/01 00:39:53;;;;;;;9.63;4.13;;;16.20;93.30;;;;;;4995293;28;20467;-81
2022/11/01 00:42:19;;;;;;;11.00;4.65;;;16.20;93.30;;;;;;4995201;28;20037;-81
2022/11/01 00:44:44;;;;;;;10.65;4.00;;;16.30;93.40;;;;;;4995236;28;20054;-80
2022/11/01 00:47:10;;;;;;;12.55;5.05;;;16.20;93.30;;;;;;4994879;28;20026;-80
2022/11/01 00:49:36;;;;;;;12.73;4.00;;;16.30;93.30;;;;;;4995166;28;20030;-80
2022/11/01 00:52:01;;;;;;;9.85;4.50;;;16.20;93.30;;;;;;4994872;28;20058;-81
2022/11/01 00:54:27;;;;;;;10.77;3.50;;;16.20;93.30;;;;;;4995981;28;20038;-80
2022/11/01 01:37:48;;;;;;;10.68;4.07;;;16.50;94.00;;;;;;4978185;28;20128;-78
2022/11/01 01:40:13;;;;;;;12.45;4.00;;;16.50;94.10;;;;;;4994873;28;20470;-78
2022/11/01 01:42:40;;;;;;;14.88;4.57;;;16.50;94.10;;;;;;4975177;28;20050;-78
2022/11/01 01:45:27;;;;;;;10.60;3.92;;;16.50;94.10;;;;;;4977517;28;20034;-78
2022/11/01 01:47:56;;;;;;;13.05;4.55;;;16.50;94.20;;;;;;4976780;28;20382;-78
2022/11/01 01:50:40;;;;;;;10.93;3.78;;;16.50;94.20;;;;;;4994679;28;20072;-77
2022/11/01 01:53:14;;;;;;;;;;;16.50;94.20;;;;;;4977823;28;20058;-77
2022/11/01 01:55:53;;;;;;;10.90;3.80;;;16.50;94.20;;;;;;4994952;28;20428;-76
2022/11/01 01:58:23;;;;;;;11.80;4.13;;;16.50;94.20;;;;;;4994510;28;20022;-76
2022/11/01 02:00:49;;;;;;;11.23;4.53;;;16.40;94.30;;;;;;4993036;28;20027;-77
2022/11/01 02:03:15;;;;;;;10.27;4.15;;;16.50;94.30;;;;;;4992826;28;20034;-76
2022/11/01 02:05:53;;;;;;;10.95;4.57;;;16.50;94.40;;;;;;4977100;28;20041;-76
2022/11/01 02:08:26;;;;;;;10.68;4.28;;;16.40;94.40;;;;;;4994006;28;20018;-76
2022/11/01 02:10:58;;;;;;;9.15;3.97;;;16.50;94.50;;;;;;4994263;28;20022;-77
2022/11/01 02:13:24;;;;;;;8.93;3.60;;;16.40;94.50;;;;;;4994201;28;20589;-76
2022/11/01 02:16:19;;;;;;;9.70;3.95;;;16.50;94.60;;;;;;4993954;28;20039;-76
2022/11/01 02:18:52;;;;;;;10.77;4.13;;;16.50;94.80;;;;;;4994343;28;20026;-76
2022/11/01 02:21:20;;;;;;;11.80;4.07;;;16.50;94.90;;;;;;4994124;28;20457;-76
2022/11/01 02:24:27;;;;;;;11.02;4.22;;;16.40;95.10;;;;;;4994098;28;20035;-76
2022/11/01 02:27:06;;;;;;;8.50;3.90;;;16.50;95.10;;;;;;4938845;28;20034;-76
2022/11/01 02:29:53;;;;;;;11.20;4.00;;;16.40;95.10;;;;;;4993745;28;20478;-76
2022/11/01 02:32:24;;;;;;;11.60;4.05;;;16.40;95.20;;;;;;4993602;28;20105;-77
2022/11/01 02:35:06;;;;;;;9.63;3.53;;;16.40;95.30;;;;;;4976524;28;20367;-77
2022/11/01 02:37:45;;;;;;;9.70;3.80;;;16.40;95.40;;;;;;4992619;28;20055;-77
2022/11/01 02:40:51;;;;;;;11.18;4.53;;;16.40;95.40;;;;;;4993783;28;20030;-76
2022/11/01 02:43:28;;;;;;;8.15;3.85;;;16.50;95.50;;;;;;4976342;28;20057;-77
2022/11/01 02:45:56;;;;;;;13.40;4.00;;;16.40;95.70;;;;;;4993999;28;20026;-76
2022/11/01 02:48:24;;;;;;;8.93;3.85;;;16.50;95.70;;;;;;4959911;28;20100;-76
2022/11/01 02:50:57;;;;;;;11.32;4.10;;;16.50;95.80;;;;;;4976262;28;20390;-76
2022/11/01 02:53:23;;;;;;;9.57;4.05;;;16.50;95.90;;;;;;4960489;28;20054;-76
2022/11/01 02:55:52;;;;;;;10.25;3.88;;;16.60;95.90;;;;;;4960555;28;20054;-76
2022/11/01 02:58:22;;;;;;;10.13;4.03;;;16.50;96.00;;;;;;4944178;28;20363;-77
2022/11/01 03:00:48;;;;;;;6.38;3.78;;;16.60;96.10;;;;;;4976168;28;20030;-77
2022/11/01 03:03:27;;;;;;;10.85;3.53;;;16.60;96.10;;;;;;4976295;28;20057;-77
2022/11/01 03:05:56;;;;;;;9.23;3.42;;;16.60;96.10;;;;;;4976042;28;20033;-77
2022/11/01 03:08:26;;;;;;;9.25;3.13;;;16.60;96.20;;;;;;4976492;28;20382;-77
2022/11/01 03:11:16;;;;;;;11.55;4.13;;;16.60;96.20;;;;;;4993426;28;20026;-77
2022/11/01 03:13:50;;;;;;;13.43;3.95;;;16.70;96.30;;;;;;4993289;28;20054;-77
2022/11/01 03:16:34;;;;;;;11.05;4.15;;;16.70;96.40;;;;;;4976202;28;20590;-77
2022/11/01 03:19:24;;;;;;;10.15;3.67;;;16.70;96.50;;;;;;4993554;28;20029;-77
2022/11/01 03:21:54;;;;;;;8.70;4.43;;;16.70;96.60;;;;;;4993158;28;20110;-77
2022/11/01 03:24:36;;;;;;;10.98;3.17;;;16.70;96.50;;;;;;4993226;28;20101;-77
2022/11/01 03:27:38;;;;;;;10.93;3.47;;;16.70;96.60;;;;;;4975985;28;20037;-77
2022/11/01 03:30:13;;;;;;;10.90;3.40;;;16.70;96.60;;;;;;4993319;28;20030;-77
2022/11/01 03:32:53;;;;;;;10.85;3.90;;;16.70;96.60;;;;;;4975596;28;20501;-77
2022/11/01 03:35:23;;;;;;;8.35;3.47;;;16.70;96.70;;;;;;4975792;28;20026;-77
2022/11/01 03:37:53;;;;;;;9.20;3.50;;;16.70;96.60;;;;;;4972568;28;20077;-77
2022/11/01 03:40:22;;;;;;;10.10;3.55;;;16.80;96.60;;;;;;4972840;28;20554;-77
2022/11/01 03:42:50;;;;;;;10.15;3.17;;;16.80;96.60;;;;;;4972785;28;20055;-76
2022/11/01 03:45:22;;;;;;;8.75;3.22;;;16.80;96.60;;;;;;4973977;28;20031;-76
2022/11/01 03:47:47;;;;;;;10.45;3.92;;;16.80;96.60;;;;;;4974692;28;20034;-77
2022/11/01 03:50:24;;;;;;;14.48;3.47;;;16.80;96.60;;;;;;4976769;28;20035;-76
2022/11/01 03:52:50;;;;;;;12.85;4.00;;;16.80;96.60;;;;;;4976407;28;20026;-76
2022/11/01 03:55:18;;;;;;;8.50;3.35;;;16.80;96.70;;;;;;4976432;28;20039;-76
2022/11/01 03:57:54;;;;;;;8.27;2.65;;;16.80;96.60;;;;;;4977074;28;20015;-76
2022/11/01 04:00:23;;;;;;;6.63;2.58;;;16.90;96.60;;;;;;4977572;28;20019;-77
2022/11/01 04:02:50;;;;;;;11.32;3.00;;;16.80;96.50;;;;;;4975983;28;20483;-77
2022/11/01 04:05:16;;;;;;;13.63;3.63;;;16.90;96.50;;;;;;4977258;28;20034;-76
2022/11/01 04:07:42;;;;;;;9.00;3.22;;;16.90;96.40;;;;;;4977212;28;20027;-76
2022/11/01 04:10:09;;;;;;;10.43;3.50;;;16.90;96.40;;;;;;4960080;28;20058;-76
2022/11/01 04:12:34;;;;;;;9.10;2.88;;;16.90;96.20;;;;;;4959715;28;20117;-77
2022/11/01 04:20:35;;;;;;;5.75;2.20;;;16.90;95.60;;;;;;4977085;28;20123;-76
2022/11/01 04:23:09;;;;;;;7.53;2.47;;;16.90;95.10;;;;;;4945285;28;20050;-77
2022/11/01 04:25:35;;;;;;;8.65;2.40;;;16.90;94.90;;;;;;4975488;28;20027;-76
2022/11/01 04:28:00;;;;;;;4.72;1.98;;;16.80;94.20;;;;;;4959628;28;20380;-77
2022/11/01 04:30:28;;;;;;;6.80;2.20;;;16.80;94.10;;;;;;4959470;28;20038;-77
2022/11/01 04:32:55;;;;;;;6.35;2.00;;;16.80;94.10;;;;;;4976346;28;20035;-77
2022/11/01 04:35:21;;;;;;;3.13;1.15;;;16.80;93.30;;;;;;4976486;28;20383;-76
2022/11/01 04:37:47;;;;;;;3.38;1.17;;;16.70;93.30;;;;;;4989459;28;20047;-76
2022/11/01 04:40:14;;;;;;;5.82;1.80;;;16.70;92.90;;;;;;4996383;28;20037;-76
2022/11/01 04:42:40;;;;;;;8.63;1.20;;;16.60;92.80;;;;;;4995835;28;20044;-76
2022/11/01 04:45:07;;;;;;;2.97;1.13;;;16.50;92.80;;;;;;4978399;28;20113;-77
2022/11/01 04:47:33;;;;;;;4.68;1.27;;;16.50;92.90;;;;;;4995467;28;20022;-77
2022/11/01 04:50:00;;;;;;;3.30;1.20;;;16.40;92.70;;;;;;4978325;28;20117;-76
2022/11/01 04:52:26;;;;;;;4.55;0.73;;;16.30;92.50;;;;;;4978885;28;20106;-76
2022/11/01 04:54:51;;;;;;;1.90;0.60;;;16.20;91.60;;;;;;4996054;28;20117;-77
2022/11/01 04:57:23;;;;;;;3.28;0.60;;;16.10;91.50;;;;;;4962413;28;20445;-76
2022/11/01 04:59:52;;;;;;;2.63;0.50;;;16.10;91.10;;;;;;4962021;28;20034;-77
2022/11/01 05:02:19;;;;;;;3.35;0.50;;;16.00;91.00;;;;;;4977735;28;20041;-77
2022/11/01 05:04:45;;;;;;;2.60;0.45;;;15.90;90.70;;;;;;4962276;28;20485;-76
2022/11/01 05:07:11;;;;;;;2.20;0.50;;;15.90;91.00;;;;;;4962112;28;20027;-76
2022/11/01 05:09:37;;;;;;;2.35;0.60;;;15.80;90.60;;;;;;4962094;28;20556;-76
2022/11/01 05:12:03;;;;;;;3.70;0.60;;;15.70;90.00;;;;;;4978379;28;20058;-76
2022/11/01 05:14:28;;;;;;;2.63;0.50;;;15.70;89.30;;;;;;4961840;28;20037;-76
2022/11/01 05:16:55;;;;;;;2.67;0.30;;;15.60;88.80;;;;;;4961774;28;20110;-76
2022/11/01 05:19:21;;;;;;;3.13;0.75;;;15.60;88.60;;;;;;4969722;28;20027;-77
2022/11/01 05:21:46;;;;;;;4.70;0.35;;;15.50;88.80;;;;;;4976268;28;20173;-77
2022/11/01 05:24:12;;;;;;;2.67;0.40;;;15.40;88.70;;;;;;4940482;28;20487;-77
2022/11/01 05:26:38;;;;;;;2.20;0.30;;;15.50;88.80;;;;;;4993506;28;20076;-77
2022/11/01 05:29:04;;;;;;;2.25;0.40;;;15.40;88.80;;;;;;4993126;28;20027;-77
2022/11/01 05:31:29;;;;;;;3.40;0.40;;;15.30;88.70;;;;;;4975943;28;20031;-78
2022/11/01 05:33:55;;;;;;;5.80;0.63;;;15.30;88.60;;;;;;4956965;28;20143;-77
2022/11/01 05:36:20;;;;;;;5.10;0.52;;;15.20;88.20;;;;;;4940467;28;20026;-77
2022/11/01 05:38:46;;;;;;;1.83;0.30;;;15.20;88.60;;;;;;4974284;28;20033;-77
2022/11/01 05:41:11;;;;;;;2.13;0.30;;;15.10;88.20;;;;;;4942177;28;20499;-78
2022/11/01 05:43:37;;;;;;;3.95;0.40;;;15.10;88.40;;;;;;4942074;28;20089;-78
2022/11/01 05:46:07;;;;;;;7.38;0.40;;;15.10;88.40;;;;;;4975096;28;20133;-77
2022/11/01 05:48:33;;;;;;;4.97;0.80;;;15.10;88.30;;;;;;4975459;28;20027;-78
2022/11/01 05:50:58;;;;;;;3.95;0.30;;;15.10;88.00;;;;;;4942039;28;20093;-78
2022/11/01 05:53:24;;;;;;;3.47;0.40;;;15.10;87.80;;;;;;4975480;28;20479;-78
2022/11/01 05:55:50;;;;;;;4.03;0.40;;;15.10;87.60;;;;;;4942087;28;20050;-78
2022/11/01 05:58:15;;;;;;;3.47;0.57;;;15.00;87.50;;;;;;4941440;28;20493;-77
2022/11/01 06:00:41;;;;;;;2.67;0.50;;;15.10;87.20;;;;;;4971262;28;20034;-77
2022/11/01 06:03:07;;;;;;;1.50;0.40;;;15.00;86.40;;;;;;4942524;28;20041;-77
2022/11/01 06:05:33;;;;;;;3.88;0.93;;;15.00;86.10;;;;;;4957551;28;20026;-78
2022/11/01 06:08:02;;;;;;;3.38;0.40;;;15.00;85.70;;;;;;4975035;28;20105;-79
2022/11/01 06:10:29;;;;;;;6.25;0.70;;;14.90;85.70;;;;;;4960208;28;20047;-79
2022/11/01 06:12:55;;;;;;;3.22;0.43;;;14.90;85.30;;;;;;4976707;28;20030;-80
2022/11/01 06:15:20;;;;;;;6.25;0.50;;;14.80;85.00;;;;;;4976688;28;20027;-79
2022/11/01 06:17:46;;;;;;;4.88;0.43;;;14.80;83.80;;;;;;4976952;28;20034;-79
2022/11/01 06:20:12;;;;;;;2.72;0.30;;;14.70;83.50;;;;;;4976846;28;20088;-81
2022/11/01 06:22:37;;;;;;;4.53;0.40;;;14.70;83.40;;;;;;4959756;28;20054;-78
2022/11/01 06:25:04;;;;;;;5.50;0.77;;;14.70;82.40;;;;;;4976194;28;20038;-79
2022/11/01 06:27:30;;;;;;;4.97;0.50;;;14.70;82.20;;;;;;4993696;28;20030;-80
2022/11/01 06:29:56;;;;;;;5.28;0.77;;;14.60;82.10;;;;;;4975594;28;20037;-79
2022/11/01 06:32:22;;;;;;;4.63;0.60;;;14.60;82.10;;;;;;4958791;28;20085;-79
2022/11/01 06:34:47;;;;;;;3.70;0.50;;;14.60;82.20;;;;;;4945009;28;20118;-79
2022/11/01 06:37:13;;;;;;;5.10;0.50;;;14.60;82.30;;;;;;4957377;28;20418;-79
2022/11/01 06:39:39;;;;;;;7.00;1.30;;;14.50;82.30;;;;;;4987372;28;20030;-79
2022/11/01 06:42:04;;;;;;;6.47;0.70;;;14.60;82.00;;;;;;4958038;28;20030;-79
2022/11/01 06:44:30;;;;;;;5.38;0.55;;;14.50;82.20;;;;;;4948823;28;20081;-79
2022/11/01 06:46:56;;;;;;;5.00;0.50;;;14.50;82.30;;;;;;4973076;28;20395;-78
2022/11/01 06:49:21;;;;;;;10.25;0.70;;;14.50;82.40;;;;;;4940360;28;20459;-81
2022/11/01 06:51:47;;;;;;;5.72;0.60;;;14.50;82.70;;;;;;4940866;28;20035;-82
2022/11/01 06:54:13;;;;;;;6.07;0.52;;;14.50;82.80;;;;;;4956981;28;20481;-81
2022/11/01 06:56:39;;;;;;;4.18;0.38;;;14.40;83.00;;;;;;4941270;28;20023;-82
2022/11/01 06:59:05;;;;;;;8.07;0.77;;;14.40;82.80;;;;;;4941131;28;20034;-83
2022/11/01 07:01:31;;;;;;;5.90;0.80;;;14.30;82.60;;;;;;4941706;28;20471;-80
2022/11/01 07:03:56;;;;;;;5.28;0.60;;;14.30;81.90;;;;;;4956369;28;20038;-80
2022/11/01 07:06:29;;;;;;;7.28;0.80;;;14.30;82.10;;;;;;4957156;28;20030;-80
2022/11/01 07:08:58;;;;;;;6.50;0.60;;;14.30;81.70;;;;;;4983254;28;20173;-79
2022/11/01 07:11:24;;;;;;;5.07;0.80;;;14.20;81.90;;;;;;4941209;28;20033;-79
2022/11/01 07:13:49;;;;;;;10.07;0.98;;;14.20;81.80;;;;;;4940271;28;20547;-79
2022/11/01 07:16:15;;;;;;;5.40;0.60;;;14.20;81.70;;;;;;4940928;28;20031;-79
2022/11/01 07:18:41;;;;;;;6.70;0.75;;;14.20;81.70;;;;;;4941753;28;20031;-79
2022/11/01 07:21:07;;;;;;;7.13;1.02;;;14.20;81.30;;;;;;4940895;28;20031;-79
2022/11/01 07:23:32;;;;;;;8.38;0.70;;;14.20;81.00;;;;;;4958626;28;20498;-79
2022/11/01 07:25:58;;;;;;;9.82;1.00;;;14.20;81.00;;;;;;4959615;28;20022;-79
2022/11/01 07:28:24;;;;;;;8.27;0.80;;;14.10;80.80;;;;;;4960583;28;20043;-79
2022/11/01 07:30:51;;;;;;;5.65;0.93;;;14.20;80.90;;;;;;4945135;28;20369;-79
2022/11/01 07:33:17;;;;;;;11.63;1.15;;;14.10;80.70;;;;;;4978375;28;20090;-79
2022/11/01 07:35:43;;;;;;;9.73;0.90;;;14.20;80.80;;;;;;4944705;28;20031;-79
2022/11/01 07:38:09;;;;;;;4.72;0.70;;;14.20;80.70;;;;;;4960577;28;20479;-79
2022/11/01 07:40:36;;;;;;;7.10;0.90;;;14.20;81.00;;;;;;4960640;28;20023;-80
2022/11/01 07:43:02;;;;;;;8.68;0.80;;;14.20;81.30;;;;;;4944744;28;20039;-80
2022/11/01 07:45:30;;;;;;;7.57;0.90;;;14.10;81.40;;;;;;4944477;28;20027;-80
2022/11/01 07:48:04;;;;;;;6.90;1.17;;;14.20;81.70;;;;;;4960082;28;20019;-79
2022/11/01 07:50:32;;;;;;;9.13;1.23;;;14.10;81.90;;;;;;4977486;28;20035;-79
2022/11/01 07:53:03;;;;;;;14.50;1.83;;;14.10;82.00;;;;;;4978710;28;20026;-79
2022/11/01 07:55:28;;;;;;;9.50;1.13;;;14.20;82.20;;;;;;4959812;28;20502;-79
2022/11/01 07:57:54;;;;;;;9.55;0.80;;;14.20;82.00;;;;;;4960126;28;20023;-79
2022/11/01 08:00:20;;;;;;;13.30;1.48;;;14.20;82.00;;;;;;4943806;28;20113;-79
2022/11/01 08:02:46;;;;;;;6.10;0.90;;;14.20;82.10;;;;;;4976830;28;20043;-79
2022/11/01 08:05:11;;;;;;;11.95;1.40;;;14.20;82.00;;;;;;4943604;28;20023;-79
2022/11/01 08:07:40;;;;;;;10.02;1.08;;;14.20;81.70;;;;;;4960030;28;20383;-79
2022/11/01 08:10:08;;;;;;;14.85;1.23;;;14.20;81.70;;;;;;4960059;28;20026;-79
2022/11/01 08:12:34;;;;;;;6.35;1.00;;;14.20;81.50;;;;;;4961269;28;20038;-80
2022/11/01 08:15:01;;;;;;;11.50;1.95;;;14.20;81.00;;;;;;4944785;28;20483;-79
2022/11/01 08:17:27;;;;;;;10.35;1.42;;;14.20;81.10;;;;;;4959737;28;20073;-80
2022/11/01 08:19:53;;;;;;;10.25;1.10;;;14.30;81.30;;;;;;4945923;28;20058;-79
2022/11/01 08:22:19;;;;;;;12.82;1.45;;;14.30;81.30;;;;;;4961059;28;20070;-80
2022/11/01 08:24:44;;;;;;;13.32;1.50;;;14.30;81.20;;;;;;4943985;28;20846;-80
2022/11/01 08:27:10;;;;;;;8.40;1.00;;;14.30;81.20;;;;;;4943600;28;20078;-80
2022/11/01 08:29:36;;;;;;;7.45;1.00;;;14.30;81.40;;;;;;4959348;28;20031;-80
2022/11/01 08:32:02;;;;;;;13.93;1.48;;;14.30;81.20;;;;;;4959753;28;20026;-80
2022/11/01 08:34:29;;;;;;;12.82;1.50;;;14.30;81.30;;;;;;4957638;28;20030;-80
2022/11/01 08:36:56;;;;;;;12.38;1.10;;;14.30;81.00;;;;;;4959167;28;20434;-80
2022/11/01 08:39:21;;;;;;;7.75;0.90;;;14.40;81.00;;;;;;4959144;28;20034;-79
2022/11/01 08:41:48;;;;;;;8.23;0.90;;;14.40;81.00;;;;;;4959846;28;20435;-79
2022/11/01 08:44:14;;;;;;;11.30;1.48;;;14.40;81.10;;;;;;4943273;28;20078;-79
2022/11/01 08:46:42;;;;;;;9.50;1.30;;;14.40;80.80;;;;;;4959155;28;20023;-80
2022/11/01 08:49:12;;;;;;;7.97;1.00;;;14.40;80.90;;;;;;4943393;28;20038;-80
2022/11/01 08:51:38;;;;;;;11.88;1.77;;;14.50;81.00;;;;;;4958959;28;20464;-80
2022/11/01 08:54:06;;;;;;;10.55;1.20;;;14.50;80.30;;;;;;4958930;28;20038;-79
2022/11/01 08:56:32;;;;;;;12.07;1.00;;;14.50;80.50;;;;;;4943237;28;20034;-80
2022/11/01 08:58:58;;;;;;;11.35;1.40;;;14.50;80.60;;;;;;4976223;28;20388;-79
2022/11/01 09:01:27;;;;;;;13.88;1.73;;;14.50;80.20;;;;;;4943079;28;20035;-79
2022/11/01 09:03:57;;;;;;;15.10;1.48;;;14.60;80.10;;;;;;4958463;28;20042;-79
2022/11/01 09:06:23;;;;;;;12.25;1.25;;;14.70;80.10;;;;;;4975947;28;20118;-79
2022/11/01 09:08:49;;;;;;;11.32;1.83;;;14.70;79.80;;;;;;4958913;28;20452;-79
2022/11/01 09:11:15;;;;;;;14.57;1.40;;;14.70;79.90;;;;;;4958649;28;20066;-79
2022/11/01 09:13:41;;;;;;;9.88;1.13;;;14.80;79.80;;;;;;4958976;28;20347;-79
2022/11/01 09:16:07;;;;;;;11.82;1.35;;;14.80;79.70;;;;;;4958770;28;20038;-79
2022/11/01 09:18:33;;;;;;;7.10;0.80;;;14.80;79.20;;;;;;4958128;28;20027;-79
2022/11/01 09:20:59;;;;;;;10.55;1.45;;;14.80;79.40;;;;;;4958817;28;20019;-80
2022/11/01 09:23:25;;;;;;;12.90;1.95;;;14.90;79.30;;;;;;4958449;28;20034;-79
2022/11/01 09:25:50;;;;;;;11.18;1.10;;;15.00;79.40;;;;;;4958258;28;20035;-79
2022/11/01 09:28:16;;;;;;;9.70;1.17;;;15.20;78.60;;;;;;4942512;28;20034;-80
2022/11/01 09:30:42;;;;;;;12.02;1.40;;;15.40;78.20;;;;;;4958380;28;20054;-80
2022/11/01 09:33:08;;;;;;;13.98;1.38;;;15.60;78.20;;;;;;4942010;28;20459;-79
2022/11/01 09:35:34;;;;;;;11.65;1.05;;;15.80;77.20;;;;;;4942412;28;20105;-79
2022/11/01 09:38:01;;;;;;;8.10;1.33;;;16.20;77.60;;;;;;4958325;28;20086;-80
2022/11/01 09:40:29;;;;;;;10.52;1.77;;;16.50;77.00;;;;;;4941993;28;20031;-80
2022/11/01 09:42:56;;;;;;;10.35;1.65;;;17.00;75.80;;;;;;4975470;28;20042;-80
2022/11/01 09:45:25;;;;;;;10.60;1.92;;;17.40;73.70;;;;;;4941581;28;20027;-80
2022/11/01 09:47:53;;;;;;;8.50;1.33;;;17.80;73.80;;;;;;4975505;28;20035;-80
2022/11/01 09:50:33;;;;;;;8.77;1.20;;;18.30;73.20;;;;;;4975321;28;20058;-80
2022/11/01 09:53:01;;;;;;;10.10;1.83;;;18.80;71.90;;;;;;4957997;28;20027;-80
2022/11/01 09:55:32;;;;;;;8.57;1.20;;;19.30;68.60;;;;;;4958406;28;20039;-81
2022/11/01 09:58:15;;;;;;;7.88;1.20;;;19.70;67.40;;;;;;4974926;28;20058;-80
2022/11/01 10:00:50;;;;;;;13.45;1.42;;;20.10;66.20;;;;;;4958192;28;20045;-80
2022/11/01 10:03:32;;;;;;;6.70;1.05;;;20.50;66.30;;;;;;4974655;28;20045;-80
2022/11/01 10:06:20;;;;;;;10.50;1.33;;;20.90;65.00;;;;;;4958054;28;20019;-80
2022/11/01 10:08:58;;;;;;;8.90;1.40;;;21.40;63.60;;;;;;4957907;28;20058;-80
2022/11/01 10:11:35;;;;;;;9.50;1.63;;;21.70;61.10;;;;;;4974525;28;20035;-80
2022/11/01 10:14:31;;;;;;;9.52;1.38;;;21.80;59.30;;;;;;4957765;28;20125;-80
2022/11/01 10:17:13;;;;;;;8.82;1.35;;;21.90;58.90;;;;;;4957393;28;20027;-81
2022/11/01 10:19:41;;;;;;;9.40;1.05;;;22.10;58.30;;;;;;4957401;28;20471;-80
2022/11/01 10:22:17;;;;;;;8.60;1.15;;;22.20;57.60;;;;;;4957580;28;20510;-80
2022/11/01 10:25:08;;;;;;;6.15;1.13;;;22.20;56.20;;;;;;4956902;28;20054;-80
2022/11/01 10:27:42;;;;;;;8.75;1.25;;;22.00;55.10;;;;;;4957502;28;20054;-80
2022/11/01 10:30:18;;;;;;;6.63;1.27;;;21.50;55.80;;;;;;4957570;28;20034;-80
2022/11/01 10:32:53;;;;;;;9.32;1.63;;;21.30;56.40;;;;;;4974186;28;20107;-80
2022/11/01 10:35:24;;;;;;;7.95;1.45;;;21.10;56.70;;;;;;4975089;28;20027;-80
2022/11/01 10:38:05;;;;;;;12.38;2.08;;;21.10;57.10;;;;;;4953875;29;20058;-80
2022/11/01 10:41:09;;;;;;;7.45;1.10;;;21.30;57.60;;;;;;4953989;29;20043;-80
2022/11/01 10:43:40;;;;;;;7.53;1.10;;;21.60;57.70;;;;;;4948157;29;20051;-80
2022/11/01 10:46:12;;;;;;;12.82;1.45;;;22.10;58.30;;;;;;4953568;29;20082;-80
2022/11/01 10:48:53;;;;;;;9.02;1.63;;;22.60;58.00;;;;;;4954003;29;20023;-80
2022/11/01 10:51:23;;;;;;;13.38;2.50;;;23.00;56.90;;;;;;4955541;28;20034;-80
2022/11/01 10:53:53;;;;;;;7.40;1.48;;;23.30;55.80;;;;;;4955258;29;20027;-80
2022/11/01 10:56:28;;;;;;;7.30;1.30;;;23.60;55.20;;;;;;4954726;29;20118;-81
2022/11/01 10:59:14;;;;;;;8.88;1.70;;;23.90;54.30;;;;;;4953427;29;20440;-81
2022/11/01 11:01:42;;;;;;;10.55;1.77;;;24.20;53.70;;;;;;4953921;29;20030;-81
2022/11/01 11:04:13;;;;;;;7.80;1.40;;;24.20;52.20;;;;;;4953402;29;20043;-81
2022/11/01 11:06:39;;;;;;;6.60;1.10;;;24.20;51.70;;;;;;4954977;28;20114;-81
2022/11/01 11:09:06;;;;;;;6.53;0.95;;;24.40;52.20;;;;;;4953360;29;20051;-81
2022/11/01 11:11:42;;;;;;;9.85;1.42;;;24.60;51.90;;;;;;4953808;29;20027;-81
2022/11/01 11:14:10;;;;;;;9.15;1.20;;;24.80;51.50;;;;;;4953825;29;20027;-80
2022/11/01 11:16:46;;;;;;;8.25;1.10;;;24.90;50.40;;;;;;4955075;28;20027;-81
2022/11/01 11:19:18;;;;;;;7.40;1.20;;;25.00;50.10;;;;;;4955056;29;20094;-80
2022/11/01 11:21:46;;;;;;;7.30;1.20;;;25.00;49.80;;;;;;4955111;28;20044;-80
2022/11/01 11:24:18;;;;;;;6.28;1.35;;;25.00;49.50;;;;;;4937502;29;20042;-82
2022/11/01 11:26:46;;;;;;;10.88;1.20;;;24.80;49.00;;;;;;4955072;28;20038;-81
2022/11/01 11:29:38;;;;;;;6.82;1.08;;;24.80;49.30;;;;;;4953649;29;20052;-80
2022/11/01 11:32:13;;;;;;;9.00;1.38;;;24.80;49.20;;;;;;4953294;29;20030;-81
2022/11/01 11:34:40;;;;;;;6.85;1.20;;;24.80;49.20;;;;;;4952838;29;20059;-80
2022/11/01 11:37:15;;;;;;;6.10;0.95;;;24.90;49.10;;;;;;4940543;28;20058;-81
2022/11/01 11:40:11;;;;;;;8.02;1.20;;;25.00;49.00;;;;;;4956606;28;20368;-81
2022/11/01 11:42:37;;;;;;;11.18;1.55;;;25.10;48.50;;;;;;4956798;28;20479;-80
2022/11/01 11:45:17;;;;;;;7.03;1.00;;;25.20;48.60;;;;;;4940830;28;20054;-80
2022/11/01 11:47:43;;;;;;;7.65;1.20;;;25.30;48.50;;;;;;4956418;28;20164;-80
2022/11/01 11:50:26;;;;;;;8.38;1.52;;;25.50;48.00;;;;;;4974019;28;20471;-80
2022/11/01 11:53:07;;;;;;;6.50;1.05;;;25.50;47.40;;;;;;4973787;28;20082;-80
2022/11/01 11:55:57;;;;;;;7.70;1.42;;;25.40;47.50;;;;;;4973701;28;20035;-80
2022/11/01 11:58:32;;;;;;;6.93;0.85;;;25.40;47.20;;;;;;4956626;28;20034;-81
2022/11/01 12:01:06;;;;;;;6.20;0.88;;;25.60;47.60;;;;;;4956632;28;20042;-80
2022/11/01 12:04:15;;;;;;;9.40;1.10;;;25.60;47.10;;;;;;4956133;28;20430;-80
2022/11/01 12:06:43;;;;;;;10.43;1.38;;;25.80;47.30;;;;;;4973834;28;20490;-81
2022/11/01 12:09:33;;;;;;;6.05;1.00;;;25.90;46.60;;;;;;4975346;28;20030;-81
2022/11/01 12:12:14;;;;;;;7.00;1.13;;;25.80;46.40;;;;;;4959819;28;20023;-81
2022/11/01 12:14:40;;;;;;;5.93;0.93;;;25.80;46.70;;;;;;4959700;28;20030;-80
2022/11/01 12:17:30;;;;;;;9.13;1.10;;;25.80;46.60;;;;;;4960557;28;20035;-80
2022/11/01 12:20:12;;;;;;;7.85;1.25;;;25.90;46.90;;;;;;4959658;28;20375;-80
2022/11/01 12:22:42;;;;;;;6.75;1.08;;;26.00;46.20;;;;;;4959151;28;20446;-80
2022/11/01 12:25:15;;;;;;;5.95;1.23;;;26.10;46.30;;;;;;4959570;28;20027;-80
2022/11/01 12:28:18;;;;;;;10.05;1.00;;;26.30;46.30;;;;;;4960150;28;20030;-80
2022/11/01 12:30:46;;;;;;;6.25;0.77;;;26.30;45.80;;;;;;4959732;28;20018;-80
2022/11/01 12:33:29;;;;;;;7.70;1.00;;;26.20;45.40;;;;;;4959484;28;20026;-81
2022/11/01 12:35:57;;;;;;;6.90;1.10;;;26.10;45.40;;;;;;4977247;28;20018;-80
2022/11/01 12:38:34;;;;;;;4.45;0.85;;;26.10;45.70;;;;;;4977490;28;20055;-80
2022/11/01 12:41:35;;;;;;;6.13;0.80;;;26.30;46.00;;;;;;4977025;28;20114;-80
2022/11/01 12:44:40;;;;;;;6.32;1.05;;;26.50;46.40;;;;;;4956214;28;20046;-80
2022/11/01 12:47:31;;;;;;;9.15;0.95;;;26.90;45.60;;;;;;4976783;28;20035;-80
2022/11/01 12:50:14;;;;;;;8.20;1.02;;;26.70;44.70;;;;;;4976461;28;20031;-80
2022/11/01 12:52:48;;;;;;;3.22;0.85;;;26.30;45.10;;;;;;4976807;28;20045;-80
2022/11/01 12:55:39;;;;;;;6.93;1.08;;;26.10;45.20;;;;;;4975884;28;20023;-80
2022/11/01 12:58:13;;;;;;;4.63;1.10;;;25.50;45.60;;;;;;4943062;28;20086;-80
2022/11/01 13:01:05;;;;;;;6.15;1.10;;;25.50;46.70;;;;;;4976269;28;20101;-80
2022/11/01 13:03:52;;;;;;;9.88;1.02;;;25.80;46.50;;;;;;4975585;28;20117;-80
2022/11/01 13:06:49;;;;;;;8.30;1.25;;;26.00;46.20;;;;;;4959008;28;20042;-79
2022/11/01 13:09:41;;;;;;;10.27;1.00;;;26.00;45.60;;;;;;4958939;28;20478;-79
2022/11/01 13:12:18;;;;;;;4.72;0.80;;;26.00;46.10;;;;;;4975912;28;20038;-80
2022/11/01 13:15:11;;;;;;;8.77;1.02;;;26.10;46.20;;;;;;4975735;28;20390;-80
2022/11/01 13:18:18;;;;;;;6.30;0.87;;;26.30;46.50;;;;;;4958382;28;20533;-80
2022/11/01 13:21:06;;;;;;;5.80;0.93;;;26.30;45.70;;;;;;4957779;28;20753;-80
2022/11/01 13:23:34;;;;;;;6.32;1.10;;;26.50;46.00;;;;;;4958716;28;20140;-80
2022/11/01 13:26:17;;;;;;;5.60;0.85;;;26.70;45.90;;;;;;4958642;28;20386;-80
2022/11/01 13:29:00;;;;;;;6.30;1.02;;;27.10;45.80;;;;;;4957920;28;20023;-80
2022/11/01 13:31:50;;;;;;;3.33;0.77;;;27.20;45.10;;;;;;4958398;28;20031;-80
2022/11/01 13:34:30;;;;;;;8.18;0.90;;;27.30;44.80;;;;;;4957648;28;20526;-79
2022/11/01 13:36:59;;;;;;;5.13;0.80;;;27.20;44.40;;;;;;4957936;28;20027;-80
2022/11/01 13:39:36;;;;;;;6.80;0.93;;;26.70;44.40;;;;;;4957903;28;20027;-80
2022/11/01 13:42:26;;;;;;;8.23;1.08;;;26.40;44.90;;;;;;4957559;28;20410;-80
2022/11/01 13:45:06;;;;;;;6.45;1.00;;;26.20;45.20;;;;;;4958401;28;20059;-80
2022/11/01 13:48:00;;;;;;;5.15;0.82;;;26.10;45.30;;;;;;4958239;28;20479;-80
2022/11/01 13:50:25;;;;;;;4.00;0.80;;;26.10;45.00;;;;;;4957844;28;20033;-80
2022/11/01 13:52:54;;;;;;;7.90;1.00;;;26.00;45.10;;;;;;4957212;28;20113;-80